Search for airport 
image banner adimage banner adimage banner ad
image banner ad

D02 - Osage Muni

Located in Osage, United States

ICAO - D02, IATA -

Data provided by Airmate  

General information

Coordinates: N43°17'32" W92°47'44"
Elevation is 1168 feet MSL.
Magnetic variation is 03° East
View others Airports in Iowa

Operational data

Special qualification required
Current time UTC:
Current local time:
Weather at : KCCY - Northeast Iowa Rgnl ( 29 km )
METAR: KCCY 181755Z AUTO 00000KT 10SM 30/12 A2987 RMK AO2
View NOTAMs / SUP AIP / TFR affecting this airport [VIEW]
Communications frequencies: [VIEW]

Runways:

RWY identifierQFULength (ft)Width (ft)SurfaceLDA (ft)
17180°340050ASPH
35340050ASPH

Airport contact information

Address: Osage United States

Satellite view of D02